Time;durP1;ratioP1;P1;durP2;ratioP2;P2;SDS_P1;SDS_P2;PMS_P1;PMS_P2;Temp;Humidity;BMP_temperature;BMP_pressure;BME280_temperature;BME280_humidity;BME280_pressure;Samples;Min_cycle;Max_cycle;Signal;HPM_P1;HPM_P2
2020/12/16 00:01:17;;;;;;;13.97;12.67;;;6.00;99.90;;;;;;4968719;28;20500;-79
2020/12/16 00:03:45;;;;;;;9.13;7.43;;;5.90;99.90;;;;;;4972864;28;20213;-79
2020/12/16 00:06:11;;;;;;;8.97;7.40;;;5.80;99.90;;;;;;4977360;28;20193;-79
2020/12/16 00:08:38;;;;;;;8.63;7.47;;;5.80;99.90;;;;;;4989054;28;20285;-79
2020/12/16 00:11:04;;;;;;;10.43;9.53;;;5.80;99.90;;;;;;4970166;28;20308;-79
2020/12/16 00:13:30;;;;;;;10.33;8.60;;;5.60;99.90;;;;;;4987469;28;20484;-79
2020/12/16 00:15:58;;;;;;;10.50;9.60;;;5.60;99.90;;;;;;4984880;28;20476;-79
2020/12/16 00:18:24;;;;;;;13.30;12.20;;;5.50;99.90;;;;;;4990939;28;20580;-79
2020/12/16 00:20:50;;;;;;;8.17;7.37;;;5.50;99.90;;;;;;4970824;28;20552;-78
2020/12/16 00:23:17;;;;;;;10.03;9.03;;;5.40;99.90;;;;;;4971373;28;20536;-79
2020/12/16 00:25:44;;;;;;;9.30;8.40;;;5.40;99.90;;;;;;4971428;28;20495;-79
2020/12/16 00:28:11;;;;;;;14.70;13.40;;;5.30;99.90;;;;;;4994122;28;20716;-79
2020/12/16 00:30:37;;;;;;;11.87;10.87;;;5.30;99.90;;;;;;5028525;23;20501;-76
2020/12/16 00:33:04;;;;;;;10.70;9.43;;;5.30;99.90;;;;;;5025645;28;20566;-76
2020/12/16 00:35:31;;;;;;;16.33;15.03;;;5.30;99.90;;;;;;5029025;28;20490;-76
2020/12/16 00:37:57;;;;;;;18.97;17.47;;;5.30;99.90;;;;;;5028486;28;20477;-76
2020/12/16 00:40:25;;;;;;;13.60;12.50;;;5.30;99.90;;;;;;5027404;28;20514;-76
2020/12/16 00:42:52;;;;;;;9.73;8.83;;;5.30;99.90;;;;;;5034591;28;20443;-76
2020/12/16 00:45:19;;;;;;;10.83;9.67;;;5.20;99.90;;;;;;5033939;28;20434;-76
2020/12/16 00:47:45;;;;;;;16.30;15.00;;;5.10;99.90;;;;;;5034201;28;20473;-76
2020/12/16 00:50:13;;;;;;;18.07;16.67;;;5.10;99.90;;;;;;5034029;28;21048;-76
2020/12/16 00:52:39;;;;;;;17.73;16.33;;;5.10;99.90;;;;;;5026329;28;20466;-76
2020/12/16 00:55:08;;;;;;;18.87;17.40;;;5.10;99.90;;;;;;5032345;28;20482;-76
2020/12/16 00:57:35;;;;;;;7.27;6.40;;;5.10;99.90;;;;;;5035310;28;20434;-76
2020/12/16 01:00:02;;;;;;;19.03;17.60;;;5.10;99.90;;;;;;5035294;28;20442;-77
2020/12/16 01:02:28;;;;;;;19.10;17.60;;;5.00;99.90;;;;;;5034563;28;20447;-76
2020/12/16 01:04:54;;;;;;;8.47;7.60;;;5.00;99.90;;;;;;5034717;28;20986;-77
2020/12/16 01:07:22;;;;;;;17.50;16.20;;;5.00;99.90;;;;;;5034749;28;20454;-76
2020/12/16 01:09:48;;;;;;;7.93;7.13;;;5.00;99.90;;;;;;5030530;28;20523;-76
2020/12/16 01:12:15;;;;;;;9.77;8.07;;;5.10;99.90;;;;;;5031807;28;20514;-76
2020/12/16 01:14:41;;;;;;;8.43;7.43;;;5.10;99.90;;;;;;5033728;28;20448;-76
2020/12/16 01:17:10;;;;;;;11.30;10.20;;;5.10;99.90;;;;;;5034091;28;20493;-77
2020/12/16 01:19:37;;;;;;;16.07;14.77;;;5.20;99.90;;;;;;5029541;28;20816;-76
2020/12/16 01:22:03;;;;;;;17.97;16.57;;;5.10;99.90;;;;;;5022314;28;20594;-76
2020/12/16 01:24:30;;;;;;;15.20;14.00;;;5.20;99.90;;;;;;5033850;28;20447;-76
2020/12/16 01:26:59;;;;;;;11.53;9.00;;;5.20;99.90;;;;;;5024006;28;20444;-76
2020/12/16 01:29:27;;;;;;;10.90;8.97;;;5.30;99.90;;;;;;5033458;28;20588;-77
2020/12/16 01:31:54;;;;;;;10.27;8.10;;;5.30;99.90;;;;;;5032093;28;20560;-76
2020/12/16 01:34:28;;;;;;;8.33;7.40;;;5.30;99.90;;;;;;5025432;28;20995;-77
2020/12/16 01:37:01;;;;;;;8.73;7.83;;;5.30;99.90;;;;;;5035466;28;20439;-76
2020/12/16 01:39:30;;;;;;;10.07;8.30;;;5.30;99.90;;;;;;5024801;28;20866;-76
2020/12/16 01:41:57;;;;;;;8.17;7.20;;;5.20;99.90;;;;;;5031123;28;20473;-76
2020/12/16 01:44:30;;;;;;;9.30;7.87;;;5.30;99.90;;;;;;5031714;28;20438;-76
2020/12/16 01:47:03;;;;;;;15.83;14.53;;;5.20;99.90;;;;;;5033965;28;20433;-76
2020/12/16 01:49:45;;;;;;;14.77;13.57;;;5.20;99.90;;;;;;5027660;28;20454;-76
2020/12/16 01:52:18;;;;;;;14.13;13.03;;;5.20;99.90;;;;;;5025141;28;20477;-76
2020/12/16 01:54:53;;;;;;;16.10;14.70;;;5.30;99.90;;;;;;5028907;28;20806;-76
2020/12/16 01:57:24;;;;;;;15.37;14.10;;;5.30;99.90;;;;;;5030945;28;20497;-77
2020/12/16 02:00:00;;;;;;;15.77;14.47;;;5.40;99.90;;;;;;5020692;28;20456;-77
2020/12/16 02:02:45;;;;;;;14.30;12.37;;;5.40;99.90;;;;;;5034011;28;20945;-77
2020/12/16 02:05:15;;;;;;;14.67;13.40;;;5.40;99.90;;;;;;5030981;28;20450;-76
2020/12/16 02:07:45;;;;;;;14.83;13.43;;;5.40;99.90;;;;;;5032112;28;20446;-76
2020/12/16 02:10:13;;;;;;;12.60;11.13;;;5.50;99.90;;;;;;5031865;28;20227;-77
2020/12/16 02:12:40;;;;;;;11.47;9.43;;;5.50;99.90;;;;;;5032734;28;20474;-77
2020/12/16 02:15:08;;;;;;;13.70;11.37;;;5.50;99.90;;;;;;5030229;28;20435;-76
2020/12/16 02:17:36;;;;;;;17.13;12.07;;;5.60;99.90;;;;;;5030296;28;20447;-76
2020/12/16 02:20:05;;;;;;;14.37;12.37;;;5.60;99.90;;;;;;5033402;28;20192;-76
2020/12/16 02:22:36;;;;;;;15.23;11.60;;;5.60;99.90;;;;;;5023984;28;20478;-76
2020/12/16 02:25:05;;;;;;;15.47;13.17;;;5.70;99.90;;;;;;5032374;28;20209;-77
2020/12/16 02:27:36;;;;;;;11.30;10.03;;;5.60;99.90;;;;;;5029418;28;20451;-76
2020/12/16 02:30:12;;;;;;;13.17;9.80;;;5.70;99.90;;;;;;5029063;28;20286;-76
2020/12/16 02:32:56;;;;;;;12.23;10.77;;;5.70;99.90;;;;;;5032532;28;20212;-77
2020/12/16 02:35:26;;;;;;;11.60;9.70;;;5.70;99.90;;;;;;5033712;28;20188;-78
2020/12/16 02:38:03;;;;;;;12.20;10.90;;;5.70;99.90;;;;;;5018593;28;20214;-78
2020/12/16 02:40:33;;;;;;;11.77;9.77;;;5.70;99.90;;;;;;5030013;28;20216;-78
2020/12/16 02:43:00;;;;;;;18.60;17.20;;;5.60;99.90;;;;;;5034625;28;20848;-78
2020/12/16 02:45:28;;;;;;;11.03;9.57;;;5.70;99.90;;;;;;5030102;28;20188;-79
2020/12/16 02:48:02;;;;;;;14.97;13.47;;;5.60;99.90;;;;;;5029699;28;20223;-77
2020/12/16 02:50:29;;;;;;;17.27;15.87;;;5.60;99.90;;;;;;5024239;28;20230;-78
2020/12/16 02:52:56;;;;;;;12.10;10.90;;;5.60;99.90;;;;;;5030258;28;20251;-78
2020/12/16 02:55:24;;;;;;;14.70;13.43;;;5.60;99.90;;;;;;5032328;28;20200;-78
2020/12/16 02:58:01;;;;;;;10.60;9.50;;;5.60;99.90;;;;;;5027938;28;20465;-78
2020/12/16 03:00:28;;;;;;;16.73;15.27;;;5.60;99.90;;;;;;5032520;28;20470;-78
2020/12/16 03:03:21;;;;;;;11.93;9.33;;;5.50;99.90;;;;;;5024440;28;20319;-78
2020/12/16 03:06:06;;;;;;;15.33;13.93;;;5.60;99.90;;;;;;5034384;28;20847;-76
2020/12/16 03:08:56;;;;;;;15.10;13.80;;;5.60;99.90;;;;;;5031214;28;20455;-78
2020/12/16 03:11:25;;;;;;;17.23;15.53;;;5.60;99.90;;;;;;5032692;28;20463;-77
2020/12/16 03:13:54;;;;;;;11.50;9.93;;;5.60;99.90;;;;;;5035460;28;21016;-78
2020/12/16 03:16:21;;;;;;;10.20;8.97;;;5.60;99.90;;;;;;5034605;28;20434;-77
2020/12/16 03:18:53;;;;;;;9.67;8.67;;;5.60;99.90;;;;;;5035987;28;20227;-77
2020/12/16 03:21:23;;;;;;;8.70;7.80;;;5.60;99.90;;;;;;5033947;28;20850;-78
2020/12/16 03:23:50;;;;;;;12.47;11.30;;;5.60;99.90;;;;;;5035045;28;20458;-78
2020/12/16 03:26:32;;;;;;;12.90;9.80;;;5.60;99.90;;;;;;5030541;28;20442;-78
2020/12/16 03:29:14;;;;;;;10.50;9.27;;;5.60;99.90;;;;;;5022280;28;20500;-78
2020/12/16 03:31:58;;;;;;;11.33;9.90;;;5.60;99.90;;;;;;5028859;28;20220;-79
2020/12/16 03:34:47;;;;;;;11.00;9.27;;;5.60;99.90;;;;;;5031498;28;21020;-77
2020/12/16 03:37:18;;;;;;;10.40;9.10;;;5.70;99.90;;;;;;5033851;28;20489;-78
2020/12/16 03:39:46;;;;;;;10.33;9.30;;;5.70;99.90;;;;;;5030093;28;20721;-77
2020/12/16 03:42:14;;;;;;;12.57;9.73;;;5.70;99.90;;;;;;5036343;28;20561;-77
2020/12/16 03:44:42;;;;;;;11.27;8.77;;;5.60;99.90;;;;;;5033136;28;20533;-75
2020/12/16 03:47:09;;;;;;;11.07;8.93;;;5.60;99.90;;;;;;5035915;28;20442;-74
2020/12/16 03:49:35;;;;;;;10.03;8.73;;;5.60;99.90;;;;;;5040697;28;20454;-74
2020/12/16 03:52:02;;;;;;;9.37;8.40;;;5.50;99.90;;;;;;5041024;28;20462;-74
2020/12/16 03:54:37;;;;;;;10.47;8.80;;;5.60;99.90;;;;;;5038483;28;20480;-78
2020/12/16 03:57:26;;;;;;;9.77;8.63;;;5.50;99.90;;;;;;5029079;28;20541;-78
2020/12/16 04:00:25;;;;;;;9.57;8.57;;;5.50;99.90;;;;;;5007035;28;20534;-78
2020/12/16 04:02:57;;;;;;;9.30;8.30;;;5.50;99.90;;;;;;5029697;28;20454;-77
2020/12/16 04:05:50;;;;;;;11.87;9.33;;;5.50;99.90;;;;;;5035080;28;20458;-78
2020/12/16 04:08:16;;;;;;;10.97;8.87;;;5.50;99.90;;;;;;5034236;28;20655;-78
2020/12/16 04:11:08;;;;;;;12.33;9.73;;;5.60;99.90;;;;;;5037246;28;20226;-79
2020/12/16 04:13:34;;;;;;;12.17;10.07;;;5.60;99.90;;;;;;5040774;28;20538;-80
2020/12/16 04:16:02;;;;;;;13.57;9.17;;;5.50;99.90;;;;;;5046891;28;20468;-79
2020/12/16 04:18:28;;;;;;;11.13;8.70;;;5.60;99.90;;;;;;5042196;28;20430;-79
2020/12/16 04:20:55;;;;;;;12.37;9.63;;;5.50;99.90;;;;;;5038645;28;20216;-78
2020/12/16 04:23:22;;;;;;;11.43;9.13;;;5.50;99.90;;;;;;5033001;28;20447;-80
2020/12/16 04:26:07;;;;;;;15.70;14.27;;;5.50;99.90;;;;;;5035385;28;20975;-79
2020/12/16 04:28:35;;;;;;;13.27;11.97;;;5.50;99.90;;;;;;5032848;28;20434;-79
2020/12/16 04:31:03;;;;;;;10.60;9.43;;;5.40;99.90;;;;;;5031693;28;20840;-78
2020/12/16 04:33:30;;;;;;;11.10;9.70;;;5.40;99.90;;;;;;5024798;28;20285;-79
2020/12/16 04:35:57;;;;;;;10.93;9.70;;;5.30;99.90;;;;;;5024331;28;20439;-79
2020/12/16 04:38:23;;;;;;;10.37;9.27;;;5.30;99.90;;;;;;5029718;28;20509;-79
2020/12/16 04:40:56;;;;;;;12.33;9.67;;;5.30;99.90;;;;;;5032266;28;20311;-76
2020/12/16 04:43:24;;;;;;;11.57;10.17;;;5.30;99.90;;;;;;5028688;28;20443;-80
2020/12/16 04:45:52;;;;;;;10.83;9.03;;;5.30;99.90;;;;;;5029429;28;20450;-79
2020/12/16 04:48:21;;;;;;;9.07;8.17;;;5.30;99.90;;;;;;5031911;28;20530;-79
2020/12/16 04:51:09;;;;;;;11.33;9.23;;;5.30;99.90;;;;;;5028880;28;20465;-78
2020/12/16 04:53:38;;;;;;;9.40;8.40;;;5.30;99.90;;;;;;5028526;28;20466;-78
2020/12/16 04:56:13;;;;;;;15.13;13.83;;;5.20;99.90;;;;;;5029097;28;20445;-78
2020/12/16 04:59:15;;;;;;;22.50;21.00;;;5.20;99.90;;;;;;5018325;28;20522;-78
2020/12/16 05:01:56;;;;;;;10.47;9.40;;;5.20;99.90;;;;;;5030377;28;20557;-78
2020/12/16 05:04:28;;;;;;;20.50;18.97;;;5.30;99.90;;;;;;5030699;28;20880;-78
2020/12/16 05:06:57;;;;;;;15.30;14.10;;;5.30;99.90;;;;;;5032093;28;20959;-78
2020/12/16 05:09:24;;;;;;;13.23;11.93;;;5.20;99.90;;;;;;5031685;28;20539;-78
2020/12/16 05:11:52;;;;;;;12.03;10.83;;;5.20;99.90;;;;;;5032445;28;20454;-78
2020/12/16 05:14:21;;;;;;;16.17;14.87;;;5.20;99.90;;;;;;5032912;28;20807;-79
2020/12/16 05:16:53;;;;;;;14.13;12.87;;;5.20;99.90;;;;;;5027489;28;20532;-78
2020/12/16 05:19:41;;;;;;;11.97;10.73;;;5.20;99.90;;;;;;5030548;28;20439;-79
2020/12/16 05:22:21;;;;;;;11.93;10.80;;;5.20;99.90;;;;;;5032534;28;20510;-79
2020/12/16 05:24:50;;;;;;;9.50;8.33;;;5.10;99.90;;;;;;5034565;28;20965;-78
2020/12/16 05:27:18;;;;;;;11.73;8.83;;;5.10;99.90;;;;;;5033795;28;20431;-79
2020/12/16 05:29:45;;;;;;;12.27;9.80;;;5.10;99.90;;;;;;5032688;28;20727;-79
2020/12/16 05:32:17;;;;;;;11.20;10.10;;;5.20;99.90;;;;;;5032807;28;20466;-79
2020/12/16 05:34:45;;;;;;;20.40;18.83;;;5.20;99.90;;;;;;5033576;28;20203;-79
2020/12/16 05:37:25;;;;;;;12.47;11.27;;;5.20;99.90;;;;;;5033808;28;20522;-78
2020/12/16 05:40:08;;;;;;;11.50;9.87;;;5.10;99.90;;;;;;5029540;28;20891;-78
2020/12/16 05:42:34;;;;;;;10.03;9.03;;;5.10;99.90;;;;;;5022214;28;20273;-79
2020/12/16 05:45:10;;;;;;;11.87;9.67;;;5.10;99.90;;;;;;5029687;28;20536;-79
2020/12/16 05:47:39;;;;;;;13.30;12.10;;;5.10;99.90;;;;;;5032878;28;20474;-78
2020/12/16 05:50:16;;;;;;;14.07;10.37;;;5.10;99.90;;;;;;5031899;28;20986;-78
2020/12/16 05:52:43;;;;;;;14.10;10.13;;;5.10;99.90;;;;;;5019969;28;20463;-78
2020/12/16 05:55:10;;;;;;;12.27;10.90;;;5.10;99.90;;;;;;5030013;28;20465;-78
2020/12/16 05:57:36;;;;;;;14.50;13.20;;;5.20;99.90;;;;;;5031349;28;20497;-78
2020/12/16 06:00:08;;;;;;;15.13;13.67;;;5.20;99.90;;;;;;5029175;28;20473;-78
2020/12/16 06:02:42;;;;;;;11.30;10.10;;;5.20;99.90;;;;;;5025180;28;20442;-78
2020/12/16 06:05:10;;;;;;;13.40;11.57;;;5.20;99.90;;;;;;5029731;28;20449;-80
2020/12/16 06:07:41;;;;;;;12.47;11.17;;;5.30;99.90;;;;;;5031636;28;20200;-78
2020/12/16 06:10:08;;;;;;;17.07;15.37;;;5.20;99.90;;;;;;5032321;28;20230;-78
2020/12/16 06:12:38;;;;;;;16.63;15.13;;;5.30;99.90;;;;;;5027235;28;20510;-79
2020/12/16 06:15:07;;;;;;;15.87;14.27;;;5.30;99.90;;;;;;5030510;28;20438;-79
2020/12/16 06:17:39;;;;;;;13.27;10.77;;;5.30;99.90;;;;;;5029504;28;20497;-78
2020/12/16 06:20:08;;;;;;;13.67;10.30;;;5.30;99.90;;;;;;5028217;28;20554;-78
2020/12/16 06:22:36;;;;;;;11.97;9.47;;;5.30;99.90;;;;;;5031029;28;20446;-78
2020/12/16 06:25:06;;;;;;;12.07;10.60;;;5.20;99.90;;;;;;5029294;28;20573;-79
2020/12/16 06:27:38;;;;;;;13.30;11.90;;;5.30;99.90;;;;;;5032152;28;20778;-78
2020/12/16 06:30:07;;;;;;;13.00;10.73;;;5.30;99.90;;;;;;5022376;28;20475;-79
2020/12/16 06:32:39;;;;;;;13.60;11.30;;;5.30;99.90;;;;;;5020227;23;20488;-81
2020/12/16 06:35:08;;;;;;;14.80;13.30;;;5.30;99.90;;;;;;4998333;28;20263;-81
2020/12/16 06:37:35;;;;;;;14.50;13.00;;;5.30;99.90;;;;;;4999465;28;20535;-81
2020/12/16 06:40:01;;;;;;;15.13;13.67;;;5.30;99.90;;;;;;4998223;28;20671;-81
2020/12/16 06:42:32;;;;;;;15.77;14.27;;;5.30;99.90;;;;;;4980467;28;20545;-81
2020/12/16 06:45:13;;;;;;;18.07;16.27;;;5.20;99.90;;;;;;4979873;28;20445;-81
2020/12/16 06:47:39;;;;;;;19.20;17.33;;;5.20;99.90;;;;;;4980351;28;20539;-81
2020/12/16 06:50:19;;;;;;;12.03;10.73;;;5.30;99.90;;;;;;4985401;28;20593;-82
2020/12/16 06:52:46;;;;;;;11.60;9.43;;;5.30;99.90;;;;;;4986472;28;20316;-81
2020/12/16 06:55:13;;;;;;;12.47;9.83;;;5.30;99.90;;;;;;4987327;28;20440;-81
2020/12/16 06:57:48;;;;;;;12.70;10.80;;;5.20;99.90;;;;;;4978117;28;20308;-81
2020/12/16 07:00:20;;;;;;;11.30;10.10;;;5.30;99.90;;;;;;4977115;28;20284;-81
2020/12/16 07:02:46;;;;;;;11.10;8.40;;;5.20;99.90;;;;;;4982323;28;20508;-79
2020/12/16 07:05:39;;;;;;;12.23;9.57;;;5.20;99.90;;;;;;4984520;28;20437;-81
2020/12/16 07:08:07;;;;;;;9.60;8.60;;;5.20;99.90;;;;;;4966256;28;20701;-81
2020/12/16 07:10:50;;;;;;;11.83;9.07;;;5.20;99.90;;;;;;4977379;28;20457;-81
2020/12/16 07:13:31;;;;;;;9.93;8.77;;;5.20;99.90;;;;;;4991578;28;20478;-81
2020/12/16 07:16:05;;;;;;;9.67;8.53;;;5.20;99.90;;;;;;4984973;28;20192;-81
2020/12/16 07:18:53;;;;;;;12.27;9.20;;;5.30;99.90;;;;;;4981926;28;20448;-81
2020/12/16 07:21:28;;;;;;;10.30;8.17;;;5.30;99.90;;;;;;4978457;28;20476;-81
2020/12/16 07:24:09;;;;;;;10.03;7.97;;;5.30;99.90;;;;;;4987896;28;20435;-82
2020/12/16 07:26:42;;;;;;;10.33;8.47;;;5.30;99.90;;;;;;4984707;28;20464;-81
2020/12/16 07:29:33;;;;;;;10.40;7.90;;;5.30;99.90;;;;;;4990550;28;20512;-81
2020/12/16 07:32:06;;;;;;;9.07;8.17;;;5.40;99.90;;;;;;4967887;28;20483;-81
2020/12/16 07:34:34;;;;;;;9.60;8.57;;;5.40;99.90;;;;;;4989242;28;20479;-81
2020/12/16 07:37:02;;;;;;;10.27;8.20;;;5.40;99.90;;;;;;4979172;28;20961;-81
2020/12/16 07:39:30;;;;;;;9.77;8.10;;;5.40;99.90;;;;;;4982682;28;20290;-82
2020/12/16 07:41:58;;;;;;;9.23;8.20;;;5.40;99.90;;;;;;4984446;28;20218;-81
2020/12/16 07:44:24;;;;;;;10.03;7.93;;;5.50;99.90;;;;;;4987272;28;20197;-81
2020/12/16 07:46:51;;;;;;;9.97;7.83;;;5.50;99.90;;;;;;4976856;28;20485;-81
2020/12/16 07:49:18;;;;;;;12.53;11.43;;;5.50;99.90;;;;;;4986502;28;20490;-81
2020/12/16 07:51:44;;;;;;;13.77;12.40;;;5.50;99.90;;;;;;4983706;28;20304;-81
2020/12/16 07:54:11;;;;;;;15.03;13.77;;;5.50;99.90;;;;;;4979895;28;20572;-81
2020/12/16 07:56:38;;;;;;;16.87;15.50;;;5.50;99.90;;;;;;4987675;28;20207;-81
2020/12/16 07:59:11;;;;;;;10.07;9.07;;;5.50;99.90;;;;;;4979868;28;20548;-81
2020/12/16 08:01:38;;;;;;;10.47;8.00;;;5.50;99.90;;;;;;4984448;28;20989;-81
2020/12/16 08:04:04;;;;;;;8.80;7.90;;;5.50;99.90;;;;;;4988135;28;20451;-81
2020/12/16 08:06:31;;;;;;;8.87;7.50;;;5.50;99.90;;;;;;4984554;28;21400;-81
2020/12/16 08:08:57;;;;;;;9.23;7.50;;;5.50;99.90;;;;;;4974305;28;20674;-81
2020/12/16 08:11:25;;;;;;;9.00;7.40;;;5.50;99.90;;;;;;4978028;28;20511;-81
2020/12/16 08:14:02;;;;;;;9.37;8.00;;;5.50;99.90;;;;;;4975894;28;20553;-81
2020/12/16 08:16:28;;;;;;;10.03;8.37;;;5.60;99.90;;;;;;4983816;28;20441;-81
2020/12/16 08:18:54;;;;;;;9.17;7.93;;;5.60;99.90;;;;;;4977584;28;20491;-82
2020/12/16 08:21:22;;;;;;;9.67;7.80;;;5.60;99.90;;;;;;4985777;28;20218;-81
2020/12/16 08:23:49;;;;;;;10.63;7.87;;;5.60;99.90;;;;;;4983244;28;20217;-81
2020/12/16 08:26:16;;;;;;;8.83;7.27;;;5.70;99.90;;;;;;4983866;28;20532;-81
2020/12/16 08:28:43;;;;;;;8.87;7.83;;;5.70;99.90;;;;;;4983172;28;20276;-81
2020/12/16 08:31:10;;;;;;;10.07;8.00;;;5.80;99.90;;;;;;4985015;28;20651;-82
2020/12/16 08:33:38;;;;;;;8.57;7.40;;;5.90;99.90;;;;;;4980624;28;20214;-81
2020/12/16 08:36:08;;;;;;;9.43;7.90;;;6.10;99.90;;;;;;4977929;28;20265;-81
2020/12/16 08:38:36;;;;;;;9.80;7.50;;;6.40;99.90;;;;;;4981065;28;20202;-81
2020/12/16 08:41:05;;;;;;;9.27;7.80;;;6.50;99.90;;;;;;4983454;28;20218;-81
2020/12/16 08:43:35;;;;;;;13.73;12.37;;;6.70;99.90;;;;;;4982389;28;20671;-82
2020/12/16 08:46:04;;;;;;;13.90;12.70;;;6.90;99.90;;;;;;4981984;28;20202;-81
2020/12/16 08:48:41;;;;;;;11.60;10.60;;;7.10;99.90;;;;;;4981919;28;20477;-81
2020/12/16 08:51:09;;;;;;;13.97;12.87;;;7.10;99.90;;;;;;4976721;28;20292;-81
2020/12/16 08:53:53;;;;;;;14.53;13.33;;;7.00;99.90;;;;;;4987950;28;20639;-82
2020/12/16 08:56:28;;;;;;;15.17;13.97;;;6.90;99.90;;;;;;4979453;28;20225;-81
2020/12/16 08:59:09;;;;;;;16.57;15.17;;;6.70;99.90;;;;;;4980624;28;20523;-81
2020/12/16 09:01:37;;;;;;;15.50;14.40;;;6.80;99.90;;;;;;4986166;28;20225;-81
2020/12/16 09:04:04;;;;;;;10.60;9.60;;;6.80;99.90;;;;;;4982630;28;20218;-81
2020/12/16 09:06:31;;;;;;;11.47;10.47;;;6.80;99.90;;;;;;4986287;28;20228;-81
2020/12/16 09:08:57;;;;;;;12.13;11.03;;;6.80;99.90;;;;;;4981737;28;20229;-80
2020/12/16 09:11:24;;;;;;;13.50;12.30;;;6.80;99.90;;;;;;4985170;28;20257;-81
2020/12/16 09:13:56;;;;;;;15.77;14.47;;;6.90;99.90;;;;;;4974698;28;20245;-81
2020/12/16 09:16:25;;;;;;;16.40;15.20;;;6.90;99.90;;;;;;4975913;28;20248;-81
2020/12/16 09:18:52;;;;;;;16.17;14.97;;;6.90;99.90;;;;;;4984500;28;20292;-81
2020/12/16 09:21:32;;;;;;;14.70;13.50;;;7.00;99.90;;;;;;4979824;28;20304;-82
2020/12/16 09:23:58;;;;;;;16.17;14.67;;;7.00;99.90;;;;;;4980018;28;20193;-79
2020/12/16 09:26:37;;;;;;;15.70;14.40;;;7.10;99.90;;;;;;4983626;28;20228;-78
2020/12/16 09:29:17;;;;;;;17.17;15.77;;;7.20;99.90;;;;;;4982816;28;20677;-79
2020/12/16 09:31:43;;;;;;;16.97;15.47;;;7.20;99.90;;;;;;4973190;28;20312;-79
2020/12/16 09:34:10;;;;;;;18.53;16.93;;;7.30;99.90;;;;;;4978706;28;20601;-79
2020/12/16 09:36:37;;;;;;;15.63;14.37;;;7.30;99.90;;;;;;4975271;28;20573;-79
2020/12/16 09:39:06;;;;;;;18.20;16.70;;;7.30;99.90;;;;;;4972738;28;20194;-80
2020/12/16 09:41:50;;;;;;;17.07;15.77;;;7.30;99.90;;;;;;4974003;28;20218;-79
2020/12/16 09:44:27;;;;;;;17.97;16.57;;;7.40;99.90;;;;;;4975862;28;20195;-79
2020/12/16 09:46:54;;;;;;;17.03;15.53;;;7.30;99.90;;;;;;4987803;28;20225;-79
2020/12/16 09:49:21;;;;;;;17.47;16.07;;;7.40;99.90;;;;;;4975818;28;20246;-79
2020/12/16 09:51:48;;;;;;;14.20;12.90;;;7.40;99.90;;;;;;4978238;28;20700;-79
2020/12/16 09:54:28;;;;;;;13.30;12.17;;;7.40;99.90;;;;;;4982202;28;20223;-79
2020/12/16 09:56:54;;;;;;;13.37;12.13;;;7.50;99.90;;;;;;4977832;28;20203;-79
2020/12/16 09:59:20;;;;;;;14.00;12.70;;;7.60;99.90;;;;;;4982709;28;20198;-79
2020/12/16 10:01:49;;;;;;;13.73;12.57;;;7.80;99.90;;;;;;4982690;28;20246;-79
2020/12/16 10:04:15;;;;;;;13.83;12.63;;;7.80;99.90;;;;;;4982392;28;20203;-79
2020/12/16 10:06:41;;;;;;;11.90;10.80;;;7.90;99.90;;;;;;4974390;28;20293;-79
2020/12/16 10:09:08;;;;;;;13.07;11.77;;;7.90;99.90;;;;;;4972831;28;20234;-79
2020/12/16 10:11:34;;;;;;;13.97;12.67;;;8.00;99.90;;;;;;4979365;28;20856;-79
2020/12/16 10:14:01;;;;;;;14.63;12.97;;;8.00;99.90;;;;;;4981512;28;20225;-79
2020/12/16 10:16:31;;;;;;;15.10;13.80;;;8.10;99.90;;;;;;4981499;28;20302;-79
2020/12/16 10:18:58;;;;;;;14.57;13.27;;;8.10;99.90;;;;;;4982399;28;20206;-79
2020/12/16 10:21:24;;;;;;;12.47;11.37;;;8.10;99.90;;;;;;4984411;28;20648;-79
2020/12/16 10:23:50;;;;;;;12.50;11.40;;;8.20;99.90;;;;;;4982382;28;20723;-79
2020/12/16 10:26:17;;;;;;;13.03;11.67;;;8.30;99.90;;;;;;4977353;28;20204;-79
2020/12/16 10:28:44;;;;;;;12.07;10.97;;;8.30;99.90;;;;;;4977956;28;20240;-79
2020/12/16 10:31:10;;;;;;;13.47;12.30;;;8.40;99.90;;;;;;4972907;28;20305;-79
2020/12/16 10:33:36;;;;;;;14.10;12.90;;;8.50;99.90;;;;;;4980934;28;20221;-80
2020/12/16 10:36:02;;;;;;;13.23;12.03;;;8.60;99.90;;;;;;4980636;28;20628;-79
2020/12/16 10:38:29;;;;;;;14.10;12.80;;;8.60;99.90;;;;;;4972861;28;20209;-79
2020/12/16 10:40:55;;;;;;;16.47;14.97;;;8.60;99.90;;;;;;4972322;28;20306;-79
2020/12/16 10:43:22;;;;;;;14.57;13.17;;;8.70;99.90;;;;;;4980354;28;20267;-79
2020/12/16 10:45:48;;;;;;;13.40;12.40;;;8.80;99.90;;;;;;4984450;28;20285;-79
2020/12/16 10:48:14;;;;;;;14.83;13.40;;;8.90;99.90;;;;;;4978763;28;20235;-79
2020/12/16 10:50:41;;;;;;;14.33;13.03;;;8.90;99.90;;;;;;4982574;28;20296;-79
2020/12/16 10:53:07;;;;;;;13.90;12.57;;;9.00;99.90;;;;;;4980804;28;20218;-79
2020/12/16 10:55:33;;;;;;;15.33;13.83;;;9.00;99.90;;;;;;4981755;28;20207;-77
2020/12/16 10:58:00;;;;;;;18.47;17.00;;;9.10;99.90;;;;;;4982738;28;20251;-79
2020/12/16 11:00:27;;;;;;;16.23;14.80;;;9.30;99.90;;;;;;4976390;28;20230;-79
2020/12/16 11:02:53;;;;;;;11.47;9.23;;;9.50;99.90;;;;;;4977313;28;20217;-79
2020/12/16 11:05:19;;;;;;;13.10;11.40;;;9.60;99.90;;;;;;4983295;28;20272;-79
2020/12/16 11:07:46;;;;;;;18.90;17.20;;;9.80;99.90;;;;;;4982917;28;20275;-79
2020/12/16 11:10:12;;;;;;;20.77;19.07;;;9.80;99.90;;;;;;4980933;28;20229;-79
2020/12/16 11:12:38;;;;;;;17.40;15.90;;;9.90;99.90;;;;;;4974135;28;20379;-79
2020/12/16 11:15:06;;;;;;;9.87;8.60;;;10.00;99.90;;;;;;4981308;28;20194;-80
2020/12/16 11:17:32;;;;;;;11.80;9.07;;;10.00;99.90;;;;;;4979549;28;20265;-79
2020/12/16 11:19:58;;;;;;;14.13;12.83;;;10.10;99.90;;;;;;4971747;28;20300;-79
2020/12/16 11:22:24;;;;;;;17.37;15.87;;;10.20;99.90;;;;;;4976971;28;20304;-80
2020/12/16 11:24:51;;;;;;;16.97;15.47;;;10.20;99.90;;;;;;4979401;28;20297;-79
2020/12/16 11:27:17;;;;;;;19.23;17.73;;;10.30;99.90;;;;;;4985695;28;20240;-79
2020/12/16 11:29:48;;;;;;;20.43;18.73;;;10.30;99.90;;;;;;4979857;28;20556;-79
2020/12/16 11:32:16;;;;;;;19.30;17.90;;;10.40;99.90;;;;;;4981333;28;20409;-79
2020/12/16 11:34:42;;;;;;;20.27;18.80;;;10.40;99.90;;;;;;4974336;28;20308;-80
2020/12/16 11:37:08;;;;;;;20.70;19.20;;;10.50;99.90;;;;;;4985559;28;20229;-79
2020/12/16 11:39:35;;;;;;;20.73;19.13;;;10.60;99.90;;;;;;4982276;28;20738;-79
2020/12/16 11:42:03;;;;;;;18.87;17.57;;;10.60;99.90;;;;;;4975316;28;20312;-80
2020/12/16 11:44:29;;;;;;;12.47;11.37;;;10.70;99.90;;;;;;4984036;28;20240;-79
2020/12/16 11:46:58;;;;;;;20.80;19.40;;;10.70;99.90;;;;;;4983390;28;20225;-80
2020/12/16 11:49:26;;;;;;;19.40;18.10;;;10.80;99.90;;;;;;4986194;28;20284;-79
2020/12/16 11:51:52;;;;;;;17.73;16.53;;;10.90;99.90;;;;;;4974935;28;20793;-79
2020/12/16 11:54:18;;;;;;;19.70;18.40;;;10.90;99.90;;;;;;4987693;28;20303;-79
2020/12/16 11:56:45;;;;;;;18.63;17.27;;;11.00;99.90;;;;;;4977852;28;20328;-79
2020/12/16 11:59:12;;;;;;;18.80;17.50;;;11.00;99.90;;;;;;4985196;28;20284;-79
2020/12/16 12:01:41;;;;;;;18.57;17.27;;;11.00;99.90;;;;;;4982562;28;20270;-79
2020/12/16 12:04:07;;;;;;;16.80;15.70;;;11.00;99.90;;;;;;4984608;28;20190;-79
2020/12/16 12:06:34;;;;;;;18.07;16.77;;;11.10;99.90;;;;;;4984200;28;20281;-79
2020/12/16 12:09:00;;;;;;;18.00;16.50;;;11.10;99.90;;;;;;4982307;28;20742;-79
2020/12/16 12:11:27;;;;;;;17.33;16.23;;;11.20;99.90;;;;;;4982690;28;20600;-80
2020/12/16 12:13:53;;;;;;;17.53;16.40;;;11.20;99.90;;;;;;4986911;28;20312;-80
2020/12/16 12:16:19;;;;;;;16.37;15.37;;;11.20;99.90;;;;;;4980847;28;20229;-80
2020/12/16 12:18:45;;;;;;;16.00;15.00;;;11.20;99.90;;;;;;4983756;28;20221;-78
2020/12/16 12:21:16;;;;;;;16.30;15.30;;;11.30;99.90;;;;;;4983448;28;20260;-79
2020/12/16 12:23:43;;;;;;;15.53;14.43;;;11.40;99.90;;;;;;4982501;28;20585;-79
2020/12/16 12:26:09;;;;;;;16.23;15.23;;;11.40;99.90;;;;;;4976573;28;20297;-78
2020/12/16 12:28:36;;;;;;;16.17;15.07;;;11.50;99.90;;;;;;4980482;28;20265;-79
2020/12/16 12:31:03;;;;;;;16.60;15.47;;;11.50;99.90;;;;;;4974887;28;20312;-79
2020/12/16 12:33:29;;;;;;;16.07;15.10;;;11.60;99.90;;;;;;4985221;28;20604;-79
2020/12/16 12:35:55;;;;;;;15.77;14.77;;;11.60;99.90;;;;;;4982673;28;20351;-80
2020/12/16 12:38:22;;;;;;;16.13;15.13;;;11.70;99.90;;;;;;4984363;28;20222;-79
2020/12/16 12:40:49;;;;;;;16.13;15.07;;;11.70;99.90;;;;;;4974516;28;20289;-80
2020/12/16 12:43:16;;;;;;;16.27;15.17;;;11.70;99.90;;;;;;4984756;28;20336;-79
2020/12/16 12:45:43;;;;;;;16.13;15.13;;;11.70;99.90;;;;;;4978626;28;20654;-78
2020/12/16 12:48:09;;;;;;;15.23;14.23;;;11.70;99.90;;;;;;4977253;28;20198;-79
2020/12/16 12:50:35;;;;;;;15.27;14.37;;;11.80;99.90;;;;;;4985916;28;20288;-79
2020/12/16 12:53:02;;;;;;;15.90;14.80;;;11.80;99.90;;;;;;4982777;28;20300;-79
2020/12/16 12:55:28;;;;;;;16.80;15.70;;;11.80;99.90;;;;;;4986389;28;20189;-79